sensor_id;sensor_type;location;lat;lon;timestamp;noise_LAeq;noise_LA_min;noise_LA_max;noise_LA01;noise_LA95
18377;Laerm;9315;52.624;13.544;2023-02-15T00:00:14;35.32;30.58;45.08;;
18377;Laerm;9315;52.624;13.544;2023-02-15T00:02:42;53.43;31.20;72.37;;
18377;Laerm;9315;52.624;13.544;2023-02-15T00:05:10;47.82;32.70;63.68;;
18377;Laerm;9315;52.624;13.544;2023-02-15T00:07:38;57.16;30.92;75.03;;
18377;Laerm;9315;52.624;13.544;2023-02-15T00:10:07;36.85;31.63;45.61;;
18377;Laerm;9315;52.624;13.544;2023-02-15T00:12:35;58.53;31.48;75.62;;
18377;Laerm;9315;52.624;13.544;2023-02-15T00:15:03;36.29;32.20;44.08;;
18377;Laerm;9315;52.624;13.544;2023-02-15T00:17:31;36.32;32.17;44.12;;
18377;Laerm;9315;52.624;13.544;2023-02-15T00:19:59;49.98;30.63;66.42;;
18377;Laerm;9315;52.624;13.544;2023-02-15T00:22:27;61.62;31.59;77.17;;
18377;Laerm;9315;52.624;13.544;2023-02-15T00:24:55;58.79;31.39;77.31;;
18377;Laerm;9315;52.624;13.544;2023-02-15T00:27:23;36.13;31.43;44.91;;
18377;Laerm;9315;52.624;13.544;2023-02-15T00:29:51;55.49;32.75;71.19;;
18377;Laerm;9315;52.624;13.544;2023-02-15T00:32:19;34.97;30.44;40.52;;
18377;Laerm;9315;52.624;13.544;2023-02-15T00:34:47;57.12;34.66;77.99;;
18377;Laerm;9315;52.624;13.544;2023-02-15T00:37:14;37.65;29.98;48.86;;
18377;Laerm;9315;52.624;13.544;2023-02-15T00:39:42;58.12;32.90;75.22;;
18377;Laerm;9315;52.624;13.544;2023-02-15T00:42:10;51.72;31.72;64.23;;
18377;Laerm;9315;52.624;13.544;2023-02-15T00:44:38;58.86;32.35;77.94;;
18377;Laerm;9315;52.624;13.544;2023-02-15T00:47:06;37.91;32.19;44.87;;
18377;Laerm;9315;52.624;13.544;2023-02-15T00:49:34;55.42;32.17;75.35;;
18377;Laerm;9315;52.624;13.544;2023-02-15T00:52:02;53.61;30.84;70.57;;
18377;Laerm;9315;52.624;13.544;2023-02-15T00:54:30;37.26;31.77;44.32;;
18377;Laerm;9315;52.624;13.544;2023-02-15T00:56:58;36.82;32.15;41.31;;
18377;Laerm;9315;52.624;13.544;2023-02-15T00:59:25;36.37;31.77;44.08;;
18377;Laerm;9315;52.624;13.544;2023-02-15T01:01:53;51.37;31.45;68.71;;
18377;Laerm;9315;52.624;13.544;2023-02-15T01:04:21;35.58;31.54;40.59;;
18377;Laerm;9315;52.624;13.544;2023-02-15T01:06:49;35.49;30.99;41.54;;
18377;Laerm;9315;52.624;13.544;2023-02-15T01:09:17;34.85;31.13;40.99;;
18377;Laerm;9315;52.624;13.544;2023-02-15T01:11:45;60.71;30.81;80.11;;
18377;Laerm;9315;52.624;13.544;2023-02-15T01:14:13;59.75;31.09;77.29;;
18377;Laerm;9315;52.624;13.544;2023-02-15T01:16:42;38.23;33.73;43.54;;
18377;Laerm;9315;52.624;13.544;2023-02-15T01:19:10;62.01;34.64;80.42;;
18377;Laerm;9315;52.624;13.544;2023-02-15T01:21:38;62.85;35.00;80.66;;
18377;Laerm;9315;52.624;13.544;2023-02-15T01:24:13;60.49;35.54;75.40;;
18377;Laerm;9315;52.624;13.544;2023-02-15T01:26:41;54.31;32.74;71.12;;
18377;Laerm;9315;52.624;13.544;2023-02-15T01:29:09;38.24;32.78;45.60;;
18377;Laerm;9315;52.624;13.544;2023-02-15T01:31:37;55.92;31.76;72.14;;
18377;Laerm;9315;52.624;13.544;2023-02-15T01:34:06;55.61;33.24;72.99;;
18377;Laerm;9315;52.624;13.544;2023-02-15T01:36:35;37.93;33.18;45.35;;
18377;Laerm;9315;52.624;13.544;2023-02-15T01:39:03;54.46;34.39;72.61;;
18377;Laerm;9315;52.624;13.544;2023-02-15T01:41:31;62.59;32.14;80.52;;
18377;Laerm;9315;52.624;13.544;2023-02-15T01:44:02;36.93;32.63;43.95;;
18377;Laerm;9315;52.624;13.544;2023-02-15T01:46:40;37.31;32.66;42.17;;
18377;Laerm;9315;52.624;13.544;2023-02-15T01:49:19;37.66;33.17;43.59;;
18377;Laerm;9315;52.624;13.544;2023-02-15T01:51:50;56.02;31.59;73.00;;
18377;Laerm;9315;52.624;13.544;2023-02-15T01:54:30;50.25;34.83;60.91;;
18377;Laerm;9315;52.624;13.544;2023-02-15T01:57:05;60.89;35.51;76.91;;
18377;Laerm;9315;52.624;13.544;2023-02-15T01:59:39;50.64;32.99;66.22;;
18377;Laerm;9315;52.624;13.544;2023-02-15T02:02:13;57.79;31.47;74.82;;
18377;Laerm;9315;52.624;13.544;2023-02-15T02:04:49;52.61;31.67;68.28;;
18377;Laerm;9315;52.624;13.544;2023-02-15T02:07:22;56.14;33.52;75.04;;
18377;Laerm;9315;52.624;13.544;2023-02-15T02:09:52;60.15;33.48;73.84;;
18377;Laerm;9315;52.624;13.544;2023-02-15T02:12:21;61.27;35.22;79.90;;
18377;Laerm;9315;52.624;13.544;2023-02-15T02:14:51;62.22;33.26;82.22;;
18377;Laerm;9315;52.624;13.544;2023-02-15T02:24:45;61.65;33.35;77.60;;
18377;Laerm;9315;52.624;13.544;2023-02-15T02:27:41;38.33;32.45;45.01;;
18377;Laerm;9315;52.624;13.544;2023-02-15T02:33:43;56.35;32.08;72.27;;
18377;Laerm;9315;52.624;13.544;2023-02-15T02:42:40;54.97;34.06;72.81;;
18377;Laerm;9315;52.624;13.544;2023-02-15T02:48:22;39.98;35.29;45.92;;
18377;Laerm;9315;52.624;13.544;2023-02-15T02:50:51;58.92;37.34;78.16;;
18377;Laerm;9315;52.624;13.544;2023-02-15T02:53:19;61.99;34.62;76.39;;
18377;Laerm;9315;52.624;13.544;2023-02-15T02:56:30;58.81;35.86;73.82;;
18377;Laerm;9315;52.624;13.544;2023-02-15T02:59:24;55.90;38.66;72.00;;
18377;Laerm;9315;52.624;13.544;2023-02-15T03:02:15;42.75;37.98;47.76;;
18377;Laerm;9315;52.624;13.544;2023-02-15T03:04:50;61.57;38.58;76.91;;
18377;Laerm;9315;52.624;13.544;2023-02-15T03:07:27;62.17;38.13;79.55;;
18377;Laerm;9315;52.624;13.544;2023-02-15T03:09:59;53.24;37.54;70.61;;
18377;Laerm;9315;52.624;13.544;2023-02-15T03:12:38;61.53;38.41;81.74;;
18377;Laerm;9315;52.624;13.544;2023-02-15T03:15:41;59.43;39.29;74.68;;
18377;Laerm;9315;52.624;13.544;2023-02-15T03:18:39;63.80;38.99;75.00;;
18377;Laerm;9315;52.624;13.544;2023-02-15T03:21:10;62.48;38.73;75.73;;
18377;Laerm;9315;52.624;13.544;2023-02-15T03:24:03;60.59;37.21;76.26;;
18377;Laerm;9315;52.624;13.544;2023-02-15T03:26:34;61.94;39.36;76.38;;
18377;Laerm;9315;52.624;13.544;2023-02-15T03:29:06;65.26;39.75;78.53;;
18377;Laerm;9315;52.624;13.544;2023-02-15T03:31:41;61.93;39.44;75.17;;
18377;Laerm;9315;52.624;13.544;2023-02-15T03:34:13;66.06;40.73;80.61;;
18377;Laerm;9315;52.624;13.544;2023-02-15T03:40:26;66.52;42.45;82.50;;
18377;Laerm;9315;52.624;13.544;2023-02-15T03:43:32;66.87;42.53;78.60;;
18377;Laerm;9315;52.624;13.544;2023-02-15T03:46:44;57.01;40.49;70.28;;
18377;Laerm;9315;52.624;13.544;2023-02-15T03:49:52;61.63;40.56;74.73;;
18377;Laerm;9315;52.624;13.544;2023-02-15T03:52:25;65.57;41.85;79.66;;
18377;Laerm;9315;52.624;13.544;2023-02-15T03:54:54;60.55;42.14;74.83;;
18377;Laerm;9315;52.624;13.544;2023-02-15T03:57:27;63.01;43.22;76.35;;
18377;Laerm;9315;52.624;13.544;2023-02-15T04:00:22;64.70;42.53;77.70;;
18377;Laerm;9315;52.624;13.544;2023-02-15T04:05:44;64.08;44.09;74.94;;
18377;Laerm;9315;52.624;13.544;2023-02-15T04:08:15;67.85;43.64;79.04;;
18377;Laerm;9315;52.624;13.544;2023-02-15T04:10:43;67.56;44.16;77.79;;
18377;Laerm;9315;52.624;13.544;2023-02-15T04:13:31;65.81;46.06;76.50;;
18377;Laerm;9315;52.624;13.544;2023-02-15T04:15:59;67.51;46.89;77.80;;
18377;Laerm;9315;52.624;13.544;2023-02-15T04:18:42;68.37;47.70;75.85;;
18377;Laerm;9315;52.624;13.544;2023-02-15T04:21:32;67.72;46.30;79.51;;
18377;Laerm;9315;52.624;13.544;2023-02-15T04:24:19;67.32;45.14;78.13;;
18377;Laerm;9315;52.624;13.544;2023-02-15T04:27:06;65.66;46.53;74.88;;
18377;Laerm;9315;52.624;13.544;2023-02-15T04:29:34;67.26;46.50;78.48;;
18377;Laerm;9315;52.624;13.544;2023-02-15T04:32:02;66.88;47.23;79.48;;
18377;Laerm;9315;52.624;13.544;2023-02-15T04:34:30;66.96;48.03;77.13;;
18377;Laerm;9315;52.624;13.544;2023-02-15T04:36:58;66.97;46.31;77.18;;
18377;Laerm;9315;52.624;13.544;2023-02-15T04:39:26;69.56;46.91;81.72;;
18377;Laerm;9315;52.624;13.544;2023-02-15T04:41:54;67.23;50.53;77.14;;
18377;Laerm;9315;52.624;13.544;2023-02-15T04:44:22;67.00;50.64;74.55;;
18377;Laerm;9315;52.624;13.544;2023-02-15T04:46:50;64.60;46.13;74.75;;
18377;Laerm;9315;52.624;13.544;2023-02-15T04:49:19;68.40;51.18;76.40;;
18377;Laerm;9315;52.624;13.544;2023-02-15T04:51:47;67.19;47.31;78.28;;
18377;Laerm;9315;52.624;13.544;2023-02-15T04:54:15;67.60;47.06;76.85;;
18377;Laerm;9315;52.624;13.544;2023-02-15T04:56:43;70.89;47.91;87.05;;
18377;Laerm;9315;52.624;13.544;2023-02-15T04:59:12;66.78;46.22;77.96;;
18377;Laerm;9315;52.624;13.544;2023-02-15T05:01:41;70.34;48.11;79.65;;
18377;Laerm;9315;52.624;13.544;2023-02-15T05:04:09;69.98;46.79;78.90;;
18377;Laerm;9315;52.624;13.544;2023-02-15T05:06:37;69.45;48.24;83.37;;
18377;Laerm;9315;52.624;13.544;2023-02-15T05:09:05;69.34;46.50;80.26;;
18377;Laerm;9315;52.624;13.544;2023-02-15T05:11:33;70.47;48.15;79.22;;
18377;Laerm;9315;52.624;13.544;2023-02-15T05:14:02;68.87;46.49;77.18;;
18377;Laerm;9315;52.624;13.544;2023-02-15T05:16:31;69.63;51.88;80.86;;
18377;Laerm;9315;52.624;13.544;2023-02-15T05:18:59;70.63;54.35;80.48;;
18377;Laerm;9315;52.624;13.544;2023-02-15T05:21:27;67.82;47.90;78.21;;
18377;Laerm;9315;52.624;13.544;2023-02-15T05:23:55;69.63;49.24;79.17;;
18377;Laerm;9315;52.624;13.544;2023-02-15T05:26:25;70.75;47.55;79.71;;
18377;Laerm;9315;52.624;13.544;2023-02-15T05:29:11;69.37;51.12;76.54;;
18377;Laerm;9315;52.624;13.544;2023-02-15T05:31:39;68.54;47.27;77.08;;
18377;Laerm;9315;52.624;13.544;2023-02-15T05:34:07;70.59;49.58;81.32;;
18377;Laerm;9315;52.624;13.544;2023-02-15T05:36:35;71.04;49.09;79.81;;
18377;Laerm;9315;52.624;13.544;2023-02-15T05:39:03;69.96;49.98;79.42;;
18377;Laerm;9315;52.624;13.544;2023-02-15T05:41:33;70.28;50.46;81.00;;
18377;Laerm;9315;52.624;13.544;2023-02-15T05:44:01;71.42;51.87;80.14;;
18377;Laerm;9315;52.624;13.544;2023-02-15T05:46:29;68.22;48.32;77.80;;
18377;Laerm;9315;52.624;13.544;2023-02-15T05:48:57;69.40;50.11;78.22;;
18377;Laerm;9315;52.624;13.544;2023-02-15T05:51:25;69.89;51.02;81.17;;
18377;Laerm;9315;52.624;13.544;2023-02-15T05:53:53;70.63;50.07;80.12;;
18377;Laerm;9315;52.624;13.544;2023-02-15T05:56:21;69.35;48.26;78.90;;
18377;Laerm;9315;52.624;13.544;2023-02-15T05:58:49;70.69;49.20;78.83;;
18377;Laerm;9315;52.624;13.544;2023-02-15T06:01:20;71.88;50.91;86.74;;
18377;Laerm;9315;52.624;13.544;2023-02-15T06:03:50;69.98;48.08;78.39;;
18377;Laerm;9315;52.624;13.544;2023-02-15T06:06:19;69.89;48.88;80.42;;
18377;Laerm;9315;52.624;13.544;2023-02-15T06:08:47;70.43;56.74;78.11;;
18377;Laerm;9315;52.624;13.544;2023-02-15T06:11:15;69.65;53.49;78.18;;
18377;Laerm;9315;52.624;13.544;2023-02-15T06:13:43;71.63;48.35;78.83;;
18377;Laerm;9315;52.624;13.544;2023-02-15T06:16:11;69.32;50.84;80.33;;
18377;Laerm;9315;52.624;13.544;2023-02-15T06:18:39;71.65;47.39;86.93;;
18377;Laerm;9315;52.624;13.544;2023-02-15T06:21:07;71.61;48.25;82.48;;
18377;Laerm;9315;52.624;13.544;2023-02-15T06:23:37;70.96;49.14;80.52;;
18377;Laerm;9315;52.624;13.544;2023-02-15T06:26:05;71.51;49.07;81.24;;
18377;Laerm;9315;52.624;13.544;2023-02-15T06:28:33;70.86;51.26;82.40;;
18377;Laerm;9315;52.624;13.544;2023-02-15T06:31:01;71.98;52.50;82.99;;
18377;Laerm;9315;52.624;13.544;2023-02-15T06:33:29;69.40;48.64;82.67;;
18377;Laerm;9315;52.624;13.544;2023-02-15T06:36:01;70.09;46.95;79.35;;
18377;Laerm;9315;52.624;13.544;2023-02-15T06:38:31;72.32;47.24;83.43;;
18377;Laerm;9315;52.624;13.544;2023-02-15T06:41:01;70.10;47.72;80.15;;
18377;Laerm;9315;52.624;13.544;2023-02-15T06:43:30;71.48;52.86;78.47;;
18377;Laerm;9315;52.624;13.544;2023-02-15T06:46:00;70.37;48.67;79.02;;
18377;Laerm;9315;52.624;13.544;2023-02-15T06:48:29;70.75;51.27;78.85;;
18377;Laerm;9315;52.624;13.544;2023-02-15T06:50:57;70.34;51.10;77.32;;
18377;Laerm;9315;52.624;13.544;2023-02-15T06:53:25;71.52;49.95;82.42;;
18377;Laerm;9315;52.624;13.544;2023-02-15T06:55:59;70.32;44.16;78.43;;
18377;Laerm;9315;52.624;13.544;2023-02-15T06:58:28;69.77;44.23;79.34;;
18377;Laerm;9315;52.624;13.544;2023-02-15T07:00:55;70.29;48.08;80.83;;
18377;Laerm;9315;52.624;13.544;2023-02-15T07:03:23;70.14;45.07;79.23;;
18377;Laerm;9315;52.624;13.544;2023-02-15T07:05:57;71.46;46.12;78.68;;
18377;Laerm;9315;52.624;13.544;2023-02-15T07:08:26;70.39;45.19;81.85;;
18377;Laerm;9315;52.624;13.544;2023-02-15T07:10:56;70.69;47.72;79.19;;
18377;Laerm;9315;52.624;13.544;2023-02-15T07:13:44;71.70;43.69;85.15;;
18377;Laerm;9315;52.624;13.544;2023-02-15T07:16:12;70.53;48.88;80.37;;
18377;Laerm;9315;52.624;13.544;2023-02-15T07:18:40;71.00;42.99;84.12;;
18377;Laerm;9315;52.624;13.544;2023-02-15T07:21:08;70.91;43.09;82.13;;
18377;Laerm;9315;52.624;13.544;2023-02-15T07:23:38;71.62;49.41;79.27;;
18377;Laerm;9315;52.624;13.544;2023-02-15T07:26:09;69.92;47.05;80.79;;
18377;Laerm;9315;52.624;13.544;2023-02-15T07:28:37;70.14;46.10;84.67;;
18377;Laerm;9315;52.624;13.544;2023-02-15T07:31:05;69.96;49.42;79.75;;
18377;Laerm;9315;52.624;13.544;2023-02-15T07:33:34;70.34;50.13;80.07;;
18377;Laerm;9315;52.624;13.544;2023-02-15T07:36:04;67.46;43.74;78.63;;
18377;Laerm;9315;52.624;13.544;2023-02-15T07:38:36;70.06;45.44;78.80;;
18377;Laerm;9315;52.624;13.544;2023-02-15T07:41:08;68.79;43.14;77.77;;
18377;Laerm;9315;52.624;13.544;2023-02-15T07:43:41;70.06;44.56;79.38;;
18377;Laerm;9315;52.624;13.544;2023-02-15T07:46:15;70.06;47.54;78.22;;
18377;Laerm;9315;52.624;13.544;2023-02-15T07:48:44;69.51;44.12;79.15;;
18377;Laerm;9315;52.624;13.544;2023-02-15T07:51:15;68.12;44.57;79.59;;
18377;Laerm;9315;52.624;13.544;2023-02-15T07:53:43;80.69;51.10;104.58;;
18377;Laerm;9315;52.624;13.544;2023-02-15T07:56:14;70.72;44.89;81.50;;
18377;Laerm;9315;52.624;13.544;2023-02-15T07:58:42;69.55;42.53;79.12;;
18377;Laerm;9315;52.624;13.544;2023-02-15T08:01:33;71.08;51.31;80.04;;
18377;Laerm;9315;52.624;13.544;2023-02-15T08:04:03;68.50;44.18;80.63;;
18377;Laerm;9315;52.624;13.544;2023-02-15T08:06:35;68.89;42.93;78.93;;
18377;Laerm;9315;52.624;13.544;2023-02-15T08:09:07;68.74;43.63;78.65;;
18377;Laerm;9315;52.624;13.544;2023-02-15T08:11:38;69.93;44.46;80.97;;
18377;Laerm;9315;52.624;13.544;2023-02-15T08:16:55;69.04;43.45;79.03;;
18377;Laerm;9315;52.624;13.544;2023-02-15T08:19:32;70.83;44.88;80.42;;
18377;Laerm;9315;52.624;13.544;2023-02-15T08:22:07;69.13;47.26;77.40;;
18377;Laerm;9315;52.624;13.544;2023-02-15T08:24:39;68.09;43.37;78.47;;
18377;Laerm;9315;52.624;13.544;2023-02-15T08:27:11;66.85;40.84;78.53;;
18377;Laerm;9315;52.624;13.544;2023-02-15T08:29:39;70.59;41.50;80.65;;
18377;Laerm;9315;52.624;13.544;2023-02-15T08:32:11;69.85;46.46;80.40;;
18377;Laerm;9315;52.624;13.544;2023-02-15T08:34:41;69.71;48.42;78.00;;
18377;Laerm;9315;52.624;13.544;2023-02-15T08:37:09;68.07;41.69;79.50;;
18377;Laerm;9315;52.624;13.544;2023-02-15T08:39:37;68.10;40.65;78.10;;
18377;Laerm;9315;52.624;13.544;2023-02-15T08:42:05;70.57;44.26;81.20;;
18377;Laerm;9315;52.624;13.544;2023-02-15T08:44:33;68.61;42.40;77.72;;
18377;Laerm;9315;52.624;13.544;2023-02-15T08:47:01;71.80;45.99;87.48;;
18377;Laerm;9315;52.624;13.544;2023-02-15T08:49:31;70.65;52.50;79.77;;
18377;Laerm;9315;52.624;13.544;2023-02-15T08:51:59;67.07;45.45;76.43;;
18377;Laerm;9315;52.624;13.544;2023-02-15T08:54:27;68.43;48.11;77.69;;
18377;Laerm;9315;52.624;13.544;2023-02-15T08:56:55;71.75;48.65;83.22;;
18377;Laerm;9315;52.624;13.544;2023-02-15T08:59:24;68.99;47.33;85.66;;
18377;Laerm;9315;52.624;13.544;2023-02-15T09:01:54;71.11;44.00;82.35;;
18377;Laerm;9315;52.624;13.544;2023-02-15T09:04:23;68.17;41.61;80.75;;
18377;Laerm;9315;52.624;13.544;2023-02-15T09:06:52;71.07;45.43;85.12;;
18377;Laerm;9315;52.624;13.544;2023-02-15T09:09:21;70.33;45.70;81.15;;
18377;Laerm;9315;52.624;13.544;2023-02-15T09:11:51;71.32;47.71;82.43;;
18377;Laerm;9315;52.624;13.544;2023-02-15T09:14:26;68.34;44.50;79.90;;
18377;Laerm;9315;52.624;13.544;2023-02-15T09:16:54;69.03;43.62;80.50;;
18377;Laerm;9315;52.624;13.544;2023-02-15T09:19:24;68.63;43.84;78.74;;
18377;Laerm;9315;52.624;13.544;2023-02-15T09:21:52;71.20;47.24;92.53;;
18377;Laerm;9315;52.624;13.544;2023-02-15T09:24:20;68.56;46.65;78.55;;
18377;Laerm;9315;52.624;13.544;2023-02-15T09:26:49;69.10;44.63;79.43;;
18377;Laerm;9315;52.624;13.544;2023-02-15T09:29:18;69.99;48.93;79.29;;
18377;Laerm;9315;52.624;13.544;2023-02-15T09:31:50;71.00;47.73;83.86;;
18377;Laerm;9315;52.624;13.544;2023-02-15T09:34:21;69.71;44.48;80.66;;
18377;Laerm;9315;52.624;13.544;2023-02-15T09:36:51;69.17;45.60;80.01;;
18377;Laerm;9315;52.624;13.544;2023-02-15T09:39:25;70.09;47.77;78.44;;
18377;Laerm;9315;52.624;13.544;2023-02-15T09:54:33;68.85;44.23;80.79;;
18377;Laerm;9315;52.624;13.544;2023-02-15T09:58:05;70.31;45.23;82.15;;
18377;Laerm;9315;52.624;13.544;2023-02-15T10:00:36;68.35;41.65;79.19;;
18377;Laerm;9315;52.624;13.544;2023-02-15T10:12:55;68.72;44.79;77.99;;
18377;Laerm;9315;52.624;13.544;2023-02-15T10:18:36;69.33;45.02;80.50;;
18377;Laerm;9315;52.624;13.544;2023-02-15T10:21:46;69.10;46.42;79.88;;
18377;Laerm;9315;52.624;13.544;2023-02-15T10:27:48;70.32;47.69;84.30;;
18377;Laerm;9315;52.624;13.544;2023-02-15T10:33:43;70.35;49.77;80.47;;
18377;Laerm;9315;52.624;13.544;2023-02-15T10:40:10;71.25;47.37;80.93;;
18377;Laerm;9315;52.624;13.544;2023-02-15T11:01:41;68.76;46.37;78.98;;
18377;Laerm;9315;52.624;13.544;2023-02-15T11:07:40;68.28;43.59;78.07;;
18377;Laerm;9315;52.624;13.544;2023-02-15T11:10:39;70.61;49.88;79.57;;
18377;Laerm;9315;52.624;13.544;2023-02-15T11:13:18;69.49;46.39;83.27;;
18377;Laerm;9315;52.624;13.544;2023-02-15T11:15:53;70.62;47.28;80.83;;
18377;Laerm;9315;52.624;13.544;2023-02-15T11:18:37;68.68;44.33;78.18;;
18377;Laerm;9315;52.624;13.544;2023-02-15T11:21:40;69.19;47.25;78.78;;
18377;Laerm;9315;52.624;13.544;2023-02-15T11:24:16;68.67;44.77;80.17;;
18377;Laerm;9315;52.624;13.544;2023-02-15T11:26:53;69.86;48.27;80.43;;
18377;Laerm;9315;52.624;13.544;2023-02-15T11:30:10;69.38;45.17;84.89;;
18377;Laerm;9315;52.624;13.544;2023-02-15T11:32:44;68.60;44.52;78.05;;
18377;Laerm;9315;52.624;13.544;2023-02-15T11:35:47;70.22;46.19;79.62;;
18377;Laerm;9315;52.624;13.544;2023-02-15T11:38:28;68.35;45.69;77.26;;
18377;Laerm;9315;52.624;13.544;2023-02-15T11:41:11;69.80;44.75;78.58;;
18377;Laerm;9315;52.624;13.544;2023-02-15T11:43:49;70.30;47.65;78.02;;
18377;Laerm;9315;52.624;13.544;2023-02-15T11:46:19;68.63;45.28;76.80;;
18377;Laerm;9315;52.624;13.544;2023-02-15T11:48:49;68.55;46.79;78.41;;
18377;Laerm;9315;52.624;13.544;2023-02-15T11:51:21;69.12;48.36;79.13;;
18377;Laerm;9315;52.624;13.544;2023-02-15T11:53:51;70.00;46.43;80.17;;
18377;Laerm;9315;52.624;13.544;2023-02-15T11:56:24;68.41;43.82;79.02;;
18377;Laerm;9315;52.624;13.544;2023-02-15T11:59:11;69.17;47.82;80.02;;
18377;Laerm;9315;52.624;13.544;2023-02-15T12:01:44;69.57;50.08;77.55;;
18377;Laerm;9315;52.624;13.544;2023-02-15T12:04:36;69.68;46.73;81.78;;
18377;Laerm;9315;52.624;13.544;2023-02-15T12:07:33;68.90;43.13;78.67;;
18377;Laerm;9315;52.624;13.544;2023-02-15T12:10:27;69.51;46.10;79.19;;
18377;Laerm;9315;52.624;13.544;2023-02-15T12:13:19;69.36;49.06;81.24;;
18377;Laerm;9315;52.624;13.544;2023-02-15T12:15:55;69.50;48.99;81.86;;
18377;Laerm;9315;52.624;13.544;2023-02-15T12:21:10;68.32;48.82;76.46;;
18377;Laerm;9315;52.624;13.544;2023-02-15T12:23:52;70.87;47.10;80.81;;
18377;Laerm;9315;52.624;13.544;2023-02-15T12:26:34;70.06;44.44;79.95;;
18377;Laerm;9315;52.624;13.544;2023-02-15T12:29:21;68.86;43.90;80.54;;
18377;Laerm;9315;52.624;13.544;2023-02-15T12:31:53;68.11;45.67;78.19;;
18377;Laerm;9315;52.624;13.544;2023-02-15T12:34:30;69.04;49.79;78.71;;
18377;Laerm;9315;52.624;13.544;2023-02-15T12:37:22;69.13;45.76;80.24;;
18377;Laerm;9315;52.624;13.544;2023-02-15T12:40:00;70.12;47.94;78.42;;
18377;Laerm;9315;52.624;13.544;2023-02-15T12:42:43;76.39;48.57;102.91;;
18377;Laerm;9315;52.624;13.544;2023-02-15T12:45:33;68.41;43.54;77.34;;
18377;Laerm;9315;52.624;13.544;2023-02-15T12:48:20;68.64;44.76;76.93;;
18377;Laerm;9315;52.624;13.544;2023-02-15T12:50:50;69.25;44.26;78.02;;
18377;Laerm;9315;52.624;13.544;2023-02-15T12:53:34;69.67;42.99;77.09;;
18377;Laerm;9315;52.624;13.544;2023-02-15T12:56:09;69.72;47.68;80.95;;
18377;Laerm;9315;52.624;13.544;2023-02-15T12:58:41;70.14;44.79;79.30;;
18377;Laerm;9315;52.624;13.544;2023-02-15T13:01:19;68.53;44.63;77.30;;
18377;Laerm;9315;52.624;13.544;2023-02-15T13:04:05;70.46;45.21;78.80;;
18377;Laerm;9315;52.624;13.544;2023-02-15T13:06:35;68.94;41.93;79.47;;
18377;Laerm;9315;52.624;13.544;2023-02-15T13:09:20;68.20;45.78;78.36;;
18377;Laerm;9315;52.624;13.544;2023-02-15T13:11:48;69.54;43.61;78.39;;
18377;Laerm;9315;52.624;13.544;2023-02-15T13:14:21;70.16;46.13;78.72;;
18377;Laerm;9315;52.624;13.544;2023-02-15T13:16:53;69.58;45.65;80.11;;
18377;Laerm;9315;52.624;13.544;2023-02-15T13:19:47;69.48;49.90;80.51;;
18377;Laerm;9315;52.624;13.544;2023-02-15T13:22:39;69.28;45.61;79.29;;
18377;Laerm;9315;52.624;13.544;2023-02-15T13:25:21;68.62;49.03;78.52;;
18377;Laerm;9315;52.624;13.544;2023-02-15T13:28:00;70.18;49.37;80.12;;
18377;Laerm;9315;52.624;13.544;2023-02-15T13:30:44;69.88;45.11;80.95;;
18377;Laerm;9315;52.624;13.544;2023-02-15T13:33:33;69.89;52.43;83.20;;
18377;Laerm;9315;52.624;13.544;2023-02-15T13:42:32;69.96;46.99;79.10;;
18377;Laerm;9315;52.624;13.544;2023-02-15T13:51:51;70.11;45.79;81.29;;
18377;Laerm;9315;52.624;13.544;2023-02-15T14:19:50;70.19;45.36;81.50;;
18377;Laerm;9315;52.624;13.544;2023-02-15T14:22:41;69.30;52.77;81.02;;
18377;Laerm;9315;52.624;13.544;2023-02-15T14:26:04;69.64;54.21;78.28;;
18377;Laerm;9315;52.624;13.544;2023-02-15T14:28:49;71.92;51.18;96.28;;
18377;Laerm;9315;52.624;13.544;2023-02-15T14:31:32;69.70;48.99;77.38;;
18377;Laerm;9315;52.624;13.544;2023-02-15T14:34:02;70.00;48.91;81.25;;
18377;Laerm;9315;52.624;13.544;2023-02-15T14:36:33;70.97;51.02;76.73;;
18377;Laerm;9315;52.624;13.544;2023-02-15T14:42:53;69.75;52.97;79.19;;
18377;Laerm;9315;52.624;13.544;2023-02-15T14:45:40;70.46;50.32;78.60;;
18377;Laerm;9315;52.624;13.544;2023-02-15T14:50:51;70.82;50.75;82.46;;
18377;Laerm;9315;52.624;13.544;2023-02-15T14:53:35;68.46;46.11;77.55;;
18377;Laerm;9315;52.624;13.544;2023-02-15T14:56:15;70.12;48.70;78.80;;
18377;Laerm;9315;52.624;13.544;2023-02-15T15:02:19;69.64;49.72;80.50;;
18377;Laerm;9315;52.624;13.544;2023-02-15T15:05:09;83.88;46.07;109.11;;
18377;Laerm;9315;52.624;13.544;2023-02-15T15:07:58;69.06;46.91;76.24;;
18377;Laerm;9315;52.624;13.544;2023-02-15T15:19:10;69.22;49.10;78.29;;
18377;Laerm;9315;52.624;13.544;2023-02-15T15:22:03;70.22;53.10;79.35;;
18377;Laerm;9315;52.624;13.544;2023-02-15T15:27:45;70.33;57.22;77.93;;
18377;Laerm;9315;52.624;13.544;2023-02-15T15:39:47;69.91;48.30;80.25;;
18377;Laerm;9315;52.624;13.544;2023-02-15T15:42:59;69.60;48.93;86.51;;
18377;Laerm;9315;52.624;13.544;2023-02-15T15:48:31;71.10;53.48;81.34;;
18377;Laerm;9315;52.624;13.544;2023-02-15T15:53:51;71.15;54.07;80.79;;
18377;Laerm;9315;52.624;13.544;2023-02-15T15:56:55;69.87;50.42;77.86;;
18377;Laerm;9315;52.624;13.544;2023-02-15T15:59:33;69.28;50.96;75.99;;
18377;Laerm;9315;52.624;13.544;2023-02-15T16:02:15;69.30;47.95;81.43;;
18377;Laerm;9315;52.624;13.544;2023-02-15T16:04:47;69.87;51.42;79.95;;
18377;Laerm;9315;52.624;13.544;2023-02-15T16:07:25;70.27;49.83;83.38;;
18377;Laerm;9315;52.624;13.544;2023-02-15T16:09:57;71.15;51.55;77.73;;
18377;Laerm;9315;52.624;13.544;2023-02-15T16:12:30;69.19;49.63;76.70;;
18377;Laerm;9315;52.624;13.544;2023-02-15T16:15:25;69.64;46.93;79.62;;
18377;Laerm;9315;52.624;13.544;2023-02-15T16:17:57;71.61;47.72;82.97;;
18377;Laerm;9315;52.624;13.544;2023-02-15T16:20:33;73.32;50.63;94.28;;
18377;Laerm;9315;52.624;13.544;2023-02-15T16:29:32;69.47;49.99;78.10;;
18377;Laerm;9315;52.624;13.544;2023-02-15T16:32:06;70.49;48.30;78.72;;
18377;Laerm;9315;52.624;13.544;2023-02-15T16:35:02;68.42;50.63;78.19;;
18377;Laerm;9315;52.624;13.544;2023-02-15T16:37:35;69.66;52.18;77.54;;
18377;Laerm;9315;52.624;13.544;2023-02-15T16:40:05;68.51;47.31;79.70;;
18377;Laerm;9315;52.624;13.544;2023-02-15T16:42:34;68.57;51.72;76.74;;
18377;Laerm;9315;52.624;13.544;2023-02-15T16:45:13;67.65;49.81;77.11;;
18377;Laerm;9315;52.624;13.544;2023-02-15T16:47:53;69.24;49.93;78.21;;
18377;Laerm;9315;52.624;13.544;2023-02-15T16:50:56;68.17;48.47;78.33;;
18377;Laerm;9315;52.624;13.544;2023-02-15T16:53:31;70.26;48.70;81.69;;
18377;Laerm;9315;52.624;13.544;2023-02-15T16:56:03;67.16;47.92;76.90;;
18377;Laerm;9315;52.624;13.544;2023-02-15T16:58:44;68.72;52.77;77.97;;
18377;Laerm;9315;52.624;13.544;2023-02-15T17:01:17;70.50;51.61;81.33;;
18377;Laerm;9315;52.624;13.544;2023-02-15T17:07:19;68.78;49.72;78.67;;
18377;Laerm;9315;52.624;13.544;2023-02-15T17:09:55;70.72;50.07;80.88;;
18377;Laerm;9315;52.624;13.544;2023-02-15T17:12:52;67.53;48.36;81.82;;
18377;Laerm;9315;52.624;13.544;2023-02-15T17:15:48;68.91;48.02;77.67;;
18377;Laerm;9315;52.624;13.544;2023-02-15T17:18:49;68.99;49.75;77.01;;
18377;Laerm;9315;52.624;13.544;2023-02-15T17:21:24;69.18;53.00;79.10;;
18377;Laerm;9315;52.624;13.544;2023-02-15T17:24:02;71.27;52.55;80.98;;